Time;durP1;ratioP1;P1;durP2;ratioP2;P2;SDS_P1;SDS_P2;PMS_P1;PMS_P2;Temp;Humidity;BMP_temperature;BMP_pressure;BME280_temperature;BME280_humidity;BME280_pressure;Samples;Min_cycle;Max_cycle;Signal;HPM_P1;HPM_P2
2021/06/25 00:00:30;;;;;;;14.75;12.07;;;;;;;18.24;72.39;100322.36;2038519;87;33008;-61
2021/06/25 00:03:34;;;;;;;13.57;11.27;;;;;;;18.24;72.43;100318.80;2038815;87;27627;-61
2021/06/25 00:06:36;;;;;;;12.98;11.35;;;;;;;18.22;72.42;100310.30;2038656;87;27521;-61
2021/06/25 00:09:38;;;;;;;13.30;11.40;;;;;;;18.22;72.48;100311.64;2038567;87;28669;-62
2021/06/25 00:12:39;;;;;;;14.63;11.03;;;;;;;18.19;72.46;100320.03;2038236;87;31259;-62
2021/06/25 00:15:42;;;;;;;13.03;10.30;;;;;;;18.22;72.55;100328.39;2027809;87;33012;-62
2021/06/25 00:18:44;;;;;;;13.43;11.57;;;;;;;18.21;72.50;100313.11;2027906;87;29485;-59
2021/06/25 00:21:47;;;;;;;14.60;12.10;;;;;;;18.19;72.43;100313.75;2028013;87;27656;-59
2021/06/25 00:24:49;;;;;;;13.62;10.98;;;;;;;18.17;72.51;100323.86;2027942;87;28794;-59
2021/06/25 00:27:52;;;;;;;16.35;12.37;;;;;;;18.15;72.53;100328.55;2027796;87;31155;-59
2021/06/25 00:30:55;;;;;;;13.62;10.75;;;;;;;18.10;72.50;100318.55;2027772;87;33023;-60
2021/06/25 00:33:57;;;;;;;17.37;11.35;;;;;;;18.06;72.60;100307.11;2027805;87;29379;-60
2021/06/25 00:36:59;;;;;;;16.37;11.38;;;;;;;18.03;72.52;100308.70;2028008;87;27606;-61
2021/06/25 00:40:03;;;;;;;15.70;11.05;;;;;;;18.01;72.64;100310.67;2027977;87;28689;-61
2021/06/25 00:43:05;;;;;;;17.52;10.65;;;;;;;17.96;72.75;100300.66;2028074;87;31096;-60
2021/06/25 00:46:07;;;;;;;16.55;11.10;;;;;;;17.92;72.83;100286.50;2027646;87;33721;-62
2021/06/25 00:49:10;;;;;;;20.80;11.35;;;;;;;17.87;72.66;100281.45;2027975;87;29314;-60
2021/06/25 00:52:20;;;;;;;15.78;11.10;;;;;;;17.84;72.84;100285.77;2028041;87;27530;-61
2021/06/25 00:55:23;;;;;;;18.20;11.00;;;;;;;17.80;72.83;100270.73;2027995;87;28707;-60
2021/06/25 00:58:25;;;;;;;17.30;11.95;;;;;;;17.77;72.95;100265.58;2027912;87;31648;-61
2021/06/25 01:01:28;;;;;;;13.45;10.98;;;;;;;17.70;73.00;100244.90;2027918;87;33795;-63
2021/06/25 01:04:29;;;;;;;14.60;10.88;;;;;;;17.65;73.02;100242.16;2027934;87;29304;-63
2021/06/25 01:07:33;;;;;;;14.43;11.83;;;;;;;17.60;73.16;100258.32;2028143;87;27642;-62
2021/06/25 01:10:37;;;;;;;13.28;11.80;;;;;;;17.60;73.30;100251.55;2027957;87;29601;-63
2021/06/25 01:13:39;;;;;;;14.07;11.80;;;;;;;17.60;73.29;100249.31;2027878;87;31076;-62
2021/06/25 01:16:41;;;;;;;18.55;12.68;;;;;;;17.59;73.41;100243.52;2011116;87;33031;-63
2021/06/25 01:19:43;;;;;;;13.95;11.73;;;;;;;17.55;73.35;100244.27;2028058;87;29407;-63
2021/06/25 01:22:46;;;;;;;16.32;12.13;;;;;;;17.54;73.50;100220.03;2027725;87;27796;-61
2021/06/25 01:25:48;;;;;;;15.58;11.68;;;;;;;17.51;73.45;100204.02;2027954;87;28732;-61
2021/06/25 01:28:49;;;;;;;16.82;12.05;;;;;;;17.45;73.49;100191.33;2027921;87;31675;-63
2021/06/25 01:31:52;;;;;;;12.25;10.65;;;;;;;17.43;73.58;100177.05;2027906;87;33023;-60
2021/06/25 01:34:54;;;;;;;18.05;12.65;;;;;;;17.38;73.49;100160.80;2027928;87;29504;-61
2021/06/25 01:37:55;;;;;;;17.98;12.30;;;;;;;17.25;73.80;100136.55;2027985;87;27559;-60
2021/06/25 01:41:00;;;;;;;13.85;10.80;;;;;;;17.26;73.96;100140.98;2027941;87;29523;-61
2021/06/25 01:44:01;;;;;;;14.00;10.88;;;;;;;17.19;74.18;100142.48;2028024;87;31952;-61
2021/06/25 01:47:04;;;;;;;15.78;10.63;;;;;;;17.10;73.96;100151.69;2027890;87;33023;-60
2021/06/25 01:50:12;;;;;;;12.33;9.85;;;;;;;17.04;74.30;100160.31;2027925;87;29403;-61
2021/06/25 01:53:18;;;;;;;11.93;9.85;;;;;;;16.98;74.15;100177.03;2028054;87;27582;-62
2021/06/25 01:56:20;;;;;;;16.27;10.50;;;;;;;16.96;74.30;100191.17;2028046;87;28590;-63
2021/06/25 01:59:22;;;;;;;15.32;11.40;;;;;;;16.95;74.33;100183.55;2027889;87;31307;-63
2021/06/25 02:02:24;;;;;;;13.78;10.65;;;;;;;16.96;74.40;100187.11;2027874;87;33214;-63
2021/06/25 02:05:26;;;;;;;11.85;10.13;;;;;;;16.94;74.48;100195.33;2027918;87;29639;-62
2021/06/25 02:08:28;;;;;;;11.38;9.90;;;;;;;16.93;74.46;100205.78;2027987;87;27511;-63
2021/06/25 02:11:29;;;;;;;13.30;9.93;;;;;;;16.93;74.49;100205.78;2027924;87;28738;-60
2021/06/25 02:14:31;;;;;;;12.37;9.08;;;;;;;16.92;74.56;100205.88;2032175;87;31941;-62
2021/06/25 02:17:33;;;;;;;11.22;9.20;;;;;;;16.92;74.64;100203.17;2037694;87;33080;-62
2021/06/25 02:20:35;;;;;;;10.85;9.38;;;;;;;16.90;74.55;100201.95;2038022;87;30141;-60
2021/06/25 02:23:36;;;;;;;13.40;10.78;;;;;;;16.89;74.52;100199.34;2038227;87;27810;-60
2021/06/25 02:26:38;;;;;;;13.75;10.43;;;;;;;16.88;74.59;100207.13;2038034;87;28782;-60
2021/06/25 02:29:40;;;;;;;14.68;11.12;;;;;;;16.84;74.59;100211.42;2038023;87;31027;-59
2021/06/25 02:32:43;;;;;;;11.85;10.00;;;;;;;16.72;74.76;100208.28;2037988;87;33028;-61
2021/06/25 02:35:45;;;;;;;11.75;9.35;;;;;;;16.72;74.76;100208.28;2038024;87;29394;-60
2021/06/25 02:38:47;;;;;;;14.58;8.80;;;;;;;16.88;74.76;100244.50;2038081;87;27514;-63
2021/06/25 02:41:49;;;;;;;13.13;10.48;;;;;;;16.90;74.70;100256.08;2038149;87;28739;-64
2021/06/25 02:44:51;;;;;;;12.98;9.50;;;;;;;16.93;74.71;100263.96;2037999;87;31185;-63
2021/06/25 02:47:53;;;;;;;12.15;10.50;;;;;;;16.83;74.66;100239.92;2037969;87;33811;-63
2021/06/25 02:50:55;;;;;;;11.65;10.45;;;;;;;16.83;74.66;100239.92;2038126;87;29460;-62
2021/06/25 02:53:57;;;;;;;14.55;10.15;;;;;;;16.95;74.63;100256.63;2038092;87;27598;-63
2021/06/25 02:56:59;;;;;;;12.23;9.80;;;;;;;16.91;74.66;100252.39;2037985;87;28724;-61
2021/06/25 03:00:04;;;;;;;12.40;10.03;;;;;;;17.04;74.78;100271.77;2037943;87;31944;-61
2021/06/25 03:03:07;;;;;;;12.80;10.85;;;;;;;17.08;74.72;100266.48;2038074;87;32948;-63
2021/06/25 03:06:09;;;;;;;14.73;10.80;;;;;;;17.14;74.78;100274.11;2037813;87;29455;-62
2021/06/25 03:09:12;;;;;;;13.08;10.45;;;;;;;17.22;74.67;100290.64;2038093;87;27519;-60
2021/06/25 03:12:14;;;;;;;14.87;11.10;;;;;;;17.22;74.67;100290.64;2038029;87;28663;-60
2021/06/25 03:15:16;;;;;;;14.50;10.35;;;;;;;17.18;74.36;100262.07;2031910;87;31761;-61
2021/06/25 03:18:18;;;;;;;11.83;8.93;;;;;;;17.18;74.36;100262.07;2027779;87;33018;-62
2021/06/25 03:21:20;;;;;;;11.97;9.40;;;;;;;17.34;74.56;100282.05;2028301;87;30031;-62
2021/06/25 03:24:22;;;;;;;10.55;9.45;;;;;;;17.35;74.44;100282.90;2027932;87;27555;-63
2021/06/25 03:27:24;;;;;;;11.15;9.63;;;;;;;17.37;74.37;100280.94;2027857;87;28876;-63
2021/06/25 03:30:26;;;;;;;11.40;8.98;;;;;;;17.23;74.26;100263.94;2027806;87;31024;-63
2021/06/25 03:33:28;;;;;;;12.85;10.50;;;;;;;17.36;74.30;100286.86;2028448;87;32946;-61
2021/06/25 03:36:30;;;;;;;14.23;9.80;;;;;;;17.36;74.26;100303.11;2027841;87;29451;-62
2021/06/25 03:39:32;;;;;;;11.18;9.40;;;;;;;17.34;74.22;100302.36;2007914;88;27666;-64
2021/06/25 03:42:35;;;;;;;10.88;8.98;;;;;;;17.36;74.36;100299.52;2007972;88;28714;-62
2021/06/25 03:45:37;;;;;;;14.20;9.23;;;;;;;17.35;74.22;100298.67;2007829;88;31073;-62
2021/06/25 03:48:40;;;;;;;15.88;8.85;;;;;;;17.36;74.21;100288.22;2007809;88;32948;-63
2021/06/25 03:51:42;;;;;;;11.15;9.60;;;;;;;17.38;74.14;100302.47;2015446;88;29320;-64
2021/06/25 03:55:03;;;;;;;11.08;8.80;;;;;;;17.38;74.50;100296.20;2021283;86;27640;-62
2021/06/25 03:57:55;;;;;;;12.55;8.23;;;;;;;17.40;74.17;100299.66;2012970;86;27731;-62
2021/06/25 04:00:57;;;;;;;10.23;8.78;;;;;;;17.43;74.15;100305.69;2018313;88;31099;-63
2021/06/25 04:04:39;;;;;;;10.70;8.40;;;;;;;17.44;74.04;100306.56;2018792;88;33817;-63
2021/06/25 04:07:56;;;;;;;9.60;7.55;;;;;;;17.35;74.05;100289.67;1977647;87;27866;-63
2021/06/25 04:10:23;;;;;;;8.05;7.25;;;;;;;17.50;73.99;100318.76;1966995;87;27804;-62
2021/06/25 04:13:28;;;;;;;7.42;6.50;;;;;;;17.53;73.97;100322.08;2020387;88;28630;-70
2021/06/25 04:16:30;;;;;;;7.70;6.78;;;;;;;17.59;73.89;100316.66;2022286;87;31084;-67
2021/06/25 04:19:32;;;;;;;7.20;6.45;;;;;;;17.61;73.83;100317.41;2027644;84;33090;-68
2021/06/25 04:32:21;;;;;;;7.33;6.65;;;;;;;17.60;73.52;100290.83;2035294;86;27686;-76
2021/06/25 04:50:42;;;;;;;7.87;7.17;;;;;;;17.63;73.35;100327.64;1698642;103;27738;-70
2021/06/25 04:54:02;;;;;;;7.42;6.62;;;;;;;17.65;73.36;100327.03;1725815;100;28785;-71
2021/06/25 05:25:06;;;;;;;6.50;5.20;;;;;;;17.81;72.52;100349.69;1659550;107;28085;-73
2021/06/25 05:28:09;;;;;;;7.45;4.75;;;;;;;17.81;72.27;100344.27;1643536;108;32259;-72
2021/06/25 05:31:12;;;;;;;6.75;5.15;;;;;;;17.81;72.37;100344.77;1643762;108;29360;-72
2021/06/25 05:34:15;;;;;;;6.65;4.85;;;;;;;17.85;72.21;100346.27;1640056;108;27654;-71
2021/06/25 05:37:17;;;;;;;6.12;4.83;;;;;;;17.86;71.61;100350.20;1635394;108;28762;-72
2021/06/25 05:40:19;;;;;;;4.92;4.53;;;;;;;17.87;71.83;100355.14;1644392;107;31352;-72
2021/06/25 05:43:21;;;;;;;8.08;5.40;;;;;;;17.88;71.63;100363.13;1675637;102;32965;-72
2021/06/25 05:46:24;;;;;;;5.53;5.03;;;;;;;17.87;71.42;100374.95;1736825;98;29370;-72
2021/06/25 05:49:26;;;;;;;7.83;5.80;;;;;;;17.87;71.26;100374.95;1831340;97;27623;-71
2021/06/25 05:52:29;;;;;;;6.90;5.30;;;;;;;17.84;71.23;100371.13;1809740;97;28666;-71
2021/06/25 05:55:31;;;;;;;7.12;6.42;;;;;;;17.83;71.28;100372.62;1779059;98;31163;-72
2021/06/25 05:58:34;;;;;;;9.38;8.13;;;;;;;17.84;71.33;100374.34;1863718;93;32997;-72
2021/06/25 06:01:35;;;;;;;6.35;5.58;;;;;;;17.82;71.10;100378.52;1921233;90;29330;-71
2021/06/25 06:04:37;;;;;;;6.17;5.50;;;;;;;17.85;71.20;100381.50;1961205;90;27614;-72
2021/06/25 06:07:40;;;;;;;5.72;5.00;;;;;;;17.89;71.02;100372.99;1960864;89;29375;-72
2021/06/25 06:10:46;;;;;;;7.28;5.28;;;;;;;17.94;71.07;100380.75;1961102;90;31116;-72
2021/06/25 06:13:49;;;;;;;6.55;5.53;;;;;;;18.02;70.95;100374.27;1961099;89;33199;-72
2021/06/25 06:16:52;;;;;;;6.22;5.35;;;;;;;18.10;70.80;100377.72;1961130;89;29475;-72
2021/06/25 06:19:58;;;;;;;6.87;6.17;;;;;;;18.26;70.81;100365.13;1961177;89;27506;-72
2021/06/25 06:33:10;;;;;;;5.83;5.33;;;;;;;19.20;70.73;100376.02;1961242;90;30120;-73
2021/06/25 06:36:23;;;;;;;7.45;5.45;;;;;;;19.30;70.72;100380.17;1991579;88;27548;-72
2021/06/25 06:39:25;;;;;;;5.60;5.10;;;;;;;19.40;70.45;100386.05;2011220;88;29524;-73
2021/06/25 06:42:29;;;;;;;6.50;5.87;;;;;;;19.47;70.71;100383.67;2011135;88;31060;-74
2021/06/25 06:45:33;;;;;;;6.95;6.25;;;;;;;19.49;70.16;100381.69;2011387;88;33014;-73
2021/06/25 06:48:41;;;;;;;7.70;5.90;;;;;;;19.49;70.09;100381.69;2011287;88;30081;-74
2021/06/25 06:51:46;;;;;;;7.00;6.30;;;;;;;19.57;69.79;100377.80;2011240;88;27459;-74
2021/06/25 06:54:49;;;;;;;6.78;6.08;;;;;;;19.71;70.23;100379.32;2010868;88;28869;-74
2021/06/25 06:57:53;;;;;;;6.20;5.60;;;;;;;19.88;69.85;100374.30;2011117;88;31047;-74
2021/06/25 07:00:57;;;;;;;5.92;5.35;;;;;;;20.22;69.72;100371.78;2011360;88;32562;-75
2021/06/25 07:04:02;;;;;;;5.05;4.65;;;;;;;20.48;68.74;100363.52;2011287;88;29334;-75
2021/06/25 07:07:06;;;;;;;5.40;4.85;;;;;;;20.59;68.59;100354.38;2011351;88;27579;-75
2021/06/25 07:10:11;;;;;;;5.42;4.95;;;;;;;20.67;67.97;100357.75;2011283;88;28590;-74
2021/06/25 07:13:15;;;;;;;4.40;3.98;;;;;;;20.65;67.52;100349.70;2011232;88;30997;-74
2021/06/25 07:16:19;;;;;;;4.75;4.30;;;;;;;20.68;67.39;100348.59;2011234;88;33150;-74
2021/06/25 07:19:25;;;;;;;4.67;4.28;;;;;;;20.79;66.86;100352.56;2009934;88;27565;-75
2021/06/25 07:23:10;;;;;;;4.45;4.05;;;;;;;20.98;66.58;100355.44;2011856;88;27808;-74
2021/06/25 07:26:14;;;;;;;6.08;5.03;;;;;;;21.21;66.48;100349.19;1994934;89;28742;-76
2021/06/25 07:29:18;;;;;;;7.17;4.42;;;;;;;21.47;65.83;100354.06;1995041;89;31105;-84
2021/06/25 07:32:21;;;;;;;5.33;4.83;;;;;;;21.62;65.84;100358.56;1995120;89;33931;-77
2021/06/25 07:35:24;;;;;;;4.80;4.17;;;;;;;21.70;65.63;100360.06;1994668;88;29490;-76
2021/06/25 07:38:28;;;;;;;4.75;4.35;;;;;;;21.63;65.04;100367.10;1995110;89;27756;-73
2021/06/25 07:41:30;;;;;;;4.58;4.10;;;;;;;21.52;64.99;100362.63;1995120;89;29406;-76
2021/06/25 07:44:34;;;;;;;5.25;4.72;;;;;;;21.45;65.05;100361.00;1994762;89;31031;-79
2021/06/25 07:47:40;;;;;;;7.35;4.95;;;;;;;21.44;65.13;100351.62;1994915;89;32957;-80
2021/06/25 07:50:44;;;;;;;4.70;4.30;;;;;;;21.50;65.17;100352.41;1994804;89;29480;-83
2021/06/25 07:53:48;;;;;;;4.65;4.10;;;;;;;21.64;65.06;100355.19;1994618;89;27628;-70
2021/06/25 07:56:51;;;;;;;;;;;;;;;21.76;64.98;100354.00;1997207;89;28624;-74
2021/06/25 07:59:54;;;;;;;6.08;5.35;;;;;;;21.88;64.57;100339.69;1994868;89;31694;-75
2021/06/25 08:02:57;;;;;;;8.20;4.45;;;;;;;21.84;63.44;100336.92;2004458;88;33157;-74
2021/06/25 08:06:00;;;;;;;5.12;4.62;;;;;;;21.73;63.35;100341.17;2011118;88;29480;-74
2021/06/25 08:09:07;;;;;;;5.28;4.78;;;;;;;21.65;63.64;100350.09;2011306;88;28039;-75
2021/06/25 08:12:13;;;;;;;5.72;4.87;;;;;;;21.68;63.78;100352.53;2011256;88;28625;-76
2021/06/25 08:15:15;;;;;;;6.58;5.30;;;;;;;21.84;63.68;100350.56;2011098;88;31137;-74
2021/06/25 08:18:18;;;;;;;5.55;5.00;;;;;;;22.03;63.04;100351.47;2011058;88;32966;-74
2021/06/25 08:21:20;;;;;;;5.75;5.15;;;;;;;22.10;63.04;100360.27;2011129;88;29928;-74
2021/06/25 08:24:21;;;;;;;5.95;5.12;;;;;;;22.21;62.66;100381.06;2011160;88;27548;-74
2021/06/25 08:27:23;;;;;;;6.20;4.90;;;;;;;22.30;62.59;100388.84;2011118;88;28604;-74
2021/06/25 08:30:26;;;;;;;7.08;4.53;;;;;;;22.30;62.11;100384.27;2011104;87;31762;-74
2021/06/25 08:33:38;;;;;;;5.10;4.67;;;;;;;22.24;61.51;100379.91;2011179;88;32941;-74
2021/06/25 08:36:42;;;;;;;6.42;4.47;;;;;;;22.20;61.35;100382.59;2012904;88;29465;-73
2021/06/25 08:39:45;;;;;;;5.80;4.70;;;;;;;22.14;60.94;100384.89;2014703;87;36603;-74
2021/06/25 08:42:49;;;;;;;5.62;4.60;;;;;;;22.13;61.46;100381.81;2014542;87;28845;-72
2021/06/25 08:45:54;;;;;;;5.05;4.60;;;;;;;22.31;61.69;100385.98;2014629;88;31035;-72
2021/06/25 08:49:04;;;;;;;4.72;4.33;;;;;;;22.54;61.57;100391.58;2014194;88;33050;-72
2021/06/25 08:52:07;;;;;;;4.25;3.95;;;;;;;22.64;61.17;100381.97;2014539;88;29310;-73
2021/06/25 08:55:12;;;;;;;4.97;4.42;;;;;;;22.76;60.34;100388.41;2014713;88;27595;-73
2021/06/25 08:58:21;;;;;;;5.85;4.65;;;;;;;22.78;60.09;100393.73;1998332;88;29457;-72
2021/06/25 09:01:25;;;;;;;5.65;4.47;;;;;;;22.74;59.96;100410.94;2014516;88;31856;-72
2021/06/25 09:04:43;;;;;;;7.10;5.33;;;;;;;22.65;60.29;100410.48;2014740;88;32901;-72
2021/06/25 09:07:46;;;;;;;8.43;5.42;;;;;;;22.57;60.10;100410.39;2014704;88;29365;-73
2021/06/25 09:10:53;;;;;;;5.00;4.22;;;;;;;22.51;60.59;100401.43;2014768;88;27545;-72
2021/06/25 09:14:06;;;;;;;5.03;4.17;;;;;;;22.43;59.94;100400.83;2014692;88;28565;-72
2021/06/25 09:17:10;;;;;;;4.83;3.60;;;;;;;22.33;60.09;100400.84;1998428;88;32648;-72
2021/06/25 09:20:17;;;;;;;11.70;4.33;;;;;;;22.33;60.27;100399.47;2014432;88;33034;-72
2021/06/25 09:23:36;;;;;;;3.60;3.17;;;;;;;22.44;60.34;100396.56;1996597;88;30502;-73
2021/06/25 09:26:39;;;;;;;4.22;3.83;;;;;;;22.61;59.68;100388.57;2014871;88;27596;-72
2021/06/25 09:29:44;;;;;;;5.30;4.00;;;;;;;22.77;59.79;100393.37;2014655;88;29783;-73
2021/06/25 09:32:49;;;;;;;4.80;4.28;;;;;;;22.79;59.38;100402.28;2014646;88;31742;-73
2021/06/25 09:35:56;;;;;;;5.10;4.17;;;;;;;22.76;59.46;100412.14;2014572;88;33070;-72
2021/06/25 09:39:04;;;;;;;5.65;4.45;;;;;;;22.63;58.81;100404.83;2014615;88;29503;-72
2021/06/25 09:42:21;;;;;;;8.48;4.45;;;;;;;22.39;59.03;100387.95;2014640;88;46691;-71
2021/06/25 09:45:25;;;;;;;8.45;5.78;;;;;;;22.26;59.12;100387.42;2014490;88;28700;-72
2021/06/25 09:48:50;;;;;;;9.33;6.53;;;;;;;22.13;59.41;100397.33;2014819;88;32012;-72
2021/06/25 09:51:59;;;;;;;7.75;4.40;;;;;;;22.06;59.26;100405.75;2014751;88;33015;-71
2021/06/25 09:55:07;;;;;;;5.72;4.17;;;;;;;21.98;59.34;100396.94;2014760;88;29509;-71
2021/06/25 10:04:36;;;;;;;8.18;4.40;;;;;;;21.83;59.94;100396.57;2014533;88;31229;-72
2021/06/25 10:07:39;;;;;;;5.00;4.42;;;;;;;21.80;60.02;100400.43;2014808;88;32921;-72
2021/06/25 10:10:41;;;;;;;4.80;4.30;;;;;;;21.65;60.09;100402.77;2014809;88;29315;-72
2021/06/25 10:13:45;;;;;;;11.48;4.03;;;;;;;21.56;60.07;100407.69;2014815;88;27573;-72
2021/06/25 10:16:48;;;;;;;5.90;5.35;;;;;;;21.53;60.40;100405.25;2014715;88;29648;-72
2021/06/25 10:19:50;;;;;;;6.53;5.58;;;;;;;21.53;60.19;100410.22;2014667;88;31017;-72
2021/06/25 10:22:54;;;;;;;5.95;5.25;;;;;;;21.53;60.00;100410.70;2014671;88;32934;-69
2021/06/25 10:25:56;;;;;;;6.35;5.75;;;;;;;21.58;60.40;100408.41;2014708;88;30253;-69
2021/06/25 10:29:03;;;;;;;6.37;5.53;;;;;;;21.72;60.07;100403.05;2014790;88;27570;-69
2021/06/25 10:32:09;;;;;;;5.97;5.33;;;;;;;21.94;59.79;100396.39;2014702;88;28752;-68
2021/06/25 10:35:14;;;;;;;5.10;4.70;;;;;;;22.25;58.98;100381.64;2014818;88;31015;-69
2021/06/25 10:38:19;;;;;;;5.85;5.25;;;;;;;22.44;59.08;100377.45;2011408;88;33177;-67
2021/06/25 10:41:22;;;;;;;6.53;5.92;;;;;;;22.65;58.03;100391.36;2011363;88;29422;-71
2021/06/25 10:44:47;;;;;;;5.75;5.15;;;;;;;22.74;57.25;100384.12;1994941;88;27529;-72
2021/06/25 10:47:54;;;;;;;;;;;;;;;22.87;58.27;100389.22;2013680;88;29325;-67
2021/06/25 10:51:33;;;;;;;5.75;5.12;;;;;;;23.13;58.11;100392.53;2026711;85;31202;-68
2021/06/25 10:57:59;;;;;;;6.67;5.87;;;;;;;23.21;56.90;100385.30;1737230;101;27769;-68
2021/06/25 11:01:29;;;;;;;8.20;5.72;;;;;;;23.43;56.53;100382.23;1733027;102;27644;-68
2021/06/25 11:04:52;;;;;;;6.78;5.58;;;;;;;23.60;55.59;100374.51;1729710;100;28653;-68
2021/06/25 11:08:03;;;;;;;5.92;5.33;;;;;;;23.76;56.28;100381.11;1694655;103;31750;-68
2021/06/25 11:11:26;;;;;;;7.20;6.12;;;;;;;24.06;56.62;100389.91;1693297;105;29522;-68
2021/06/25 11:14:42;;;;;;;7.08;6.00;;;;;;;24.26;56.12;100391.36;1694571;105;29393;-68
2021/06/25 11:18:30;;;;;;;7.85;5.75;;;;;;;24.36;55.43;100378.07;1694495;105;27745;-67
2021/06/25 11:21:45;;;;;;;8.08;5.65;;;;;;;24.35;55.36;100379.09;1694694;104;28745;-68
2021/06/25 11:24:53;;;;;;;6.17;5.40;;;;;;;24.20;55.11;100374.73;1694750;105;31050;-67
2021/06/25 11:28:20;;;;;;;7.25;6.55;;;;;;;24.03;54.93;100380.64;1694541;105;32971;-67
2021/06/25 11:31:27;;;;;;;5.92;5.33;;;;;;;23.84;55.08;100382.55;1694604;104;30500;-68
2021/06/25 11:34:30;;;;;;;6.50;5.78;;;;;;;23.63;55.55;100382.40;1801379;90;27597;-67
2021/06/25 11:37:58;;;;;;;7.05;6.35;;;;;;;23.51;55.61;100378.22;1987880;89;28722;-68
2021/06/25 11:41:00;;;;;;;6.40;5.80;;;;;;;23.43;55.83;100372.17;1946858;91;31278;-68
2021/06/25 11:44:30;;;;;;;6.10;5.50;;;;;;;23.47;55.74;100374.07;2068450;83;33004;-66
2021/06/25 11:47:33;;;;;;;10.05;6.00;;;;;;;23.51;56.10;100379.06;2124277;83;30161;-73
2021/06/25 11:50:37;;;;;;;9.98;6.05;;;;;;;23.56;55.94;100372.27;2127708;83;27854;-76
2021/06/25 11:53:44;;;;;;;7.22;5.83;;;;;;;23.55;55.83;100374.16;2127935;82;28590;-68
2021/06/25 11:56:47;;;;;;;7.12;6.12;;;;;;;23.59;56.01;100370.58;2127741;83;30974;-68
2021/06/25 12:00:00;;;;;;;7.85;6.45;;;;;;;23.67;55.57;100374.72;2118293;83;32352;-69
2021/06/25 12:03:03;;;;;;;11.68;6.00;;;;;;;23.75;55.45;100372.55;2127621;82;29349;-68
2021/06/25 12:06:05;;;;;;;6.30;4.60;;;;;;;23.84;55.62;100379.81;2127709;82;27578;-69
2021/06/25 12:09:10;;;;;;;5.72;4.83;;;;;;;23.91;54.77;100384.97;2127635;82;28592;-69
2021/06/25 12:12:20;;;;;;;8.73;4.78;;;;;;;24.00;54.49;100391.39;2127738;82;31848;-68
2021/06/25 12:15:22;;;;;;;7.80;5.10;;;;;;;24.03;54.72;100384.23;2127583;82;33086;-68
2021/06/25 12:18:26;;;;;;;5.50;5.00;;;;;;;24.09;54.48;100396.40;2127612;83;29229;-68
2021/06/25 12:21:28;;;;;;;6.75;5.42;;;;;;;24.06;54.02;100390.75;2127797;82;27549;-68
2021/06/25 12:24:30;;;;;;;6.33;5.47;;;;;;;24.06;53.95;100398.95;2127599;82;29572;-69
2021/06/25 12:27:38;;;;;;;8.40;4.67;;;;;;;24.09;53.76;100400.50;2127687;83;31748;-68
2021/06/25 12:30:54;;;;;;;5.05;4.37;;;;;;;24.09;53.22;100393.17;2127531;82;33704;-69
2021/06/25 12:34:11;;;;;;;7.60;4.28;;;;;;;24.15;53.63;100388.91;2127371;83;30340;-68
2021/06/25 12:37:13;;;;;;;5.70;4.58;;;;;;;24.23;53.61;100379.39;2084076;85;27819;-68
2021/06/25 12:40:35;;;;;;;5.53;4.70;;;;;;;24.30;53.41;100381.45;2080146;85;28642;-68
2021/06/25 12:43:42;;;;;;;6.05;4.05;;;;;;;24.39;52.73;100369.53;2079969;85;31050;-68
2021/06/25 12:46:44;;;;;;;6.17;4.50;;;;;;;24.47;53.11;100366.80;2057280;85;33161;-69
2021/06/25 12:49:46;;;;;;;5.45;4.22;;;;;;;24.52;52.56;100352.11;2079962;85;29455;-69
2021/06/25 12:52:47;;;;;;;6.92;4.45;;;;;;;24.59;52.23;100359.15;2080038;85;27838;-68
2021/06/25 12:55:49;;;;;;;4.22;3.80;;;;;;;24.63;52.13;100355.55;2079977;85;28596;-69
2021/06/25 12:59:02;;;;;;;6.35;4.20;;;;;;;24.66;52.58;100353.86;2079947;85;32140;-68
2021/06/25 13:02:05;;;;;;;4.10;3.58;;;;;;;24.66;52.45;100360.70;2071996;85;33039;-67
2021/06/25 13:05:07;;;;;;;4.85;4.35;;;;;;;24.68;52.78;100353.19;2079961;85;29474;-67
2021/06/25 13:08:16;;;;;;;4.85;3.90;;;;;;;24.67;51.87;100358.31;2080017;85;27552;-67
2021/06/25 13:11:27;;;;;;;4.30;3.90;;;;;;;24.56;51.88;100366.33;2035494;87;28634;-68
2021/06/25 13:14:51;;;;;;;4.78;4.30;;;;;;;24.49;52.00;100359.81;2062336;85;30528;-68
2021/06/25 13:17:54;;;;;;;4.53;4.10;;;;;;;24.38;51.70;100365.08;2081044;85;32992;-68
2021/06/25 13:21:27;;;;;;;6.58;4.22;;;;;;;24.27;52.32;100369.80;2081116;85;29481;-68
2021/06/25 13:24:55;;;;;;;5.35;3.40;;;;;;;24.23;52.16;100371.67;2081238;85;27592;-68
2021/06/25 13:27:57;;;;;;;4.92;4.45;;;;;;;24.21;52.46;100373.71;1978220;89;28645;-68
2021/06/25 13:31:08;;;;;;;5.78;3.95;;;;;;;24.24;52.09;100370.66;1978538;90;31070;-67
2021/06/25 13:34:10;;;;;;;7.08;3.55;;;;;;;24.20;52.61;100356.94;1978529;90;33951;-67
2021/06/25 13:37:11;;;;;;;4.05;3.67;;;;;;;24.31;52.68;100357.16;1977611;90;29302;-67
2021/06/25 13:40:18;;;;;;;4.50;3.85;;;;;;;24.40;52.79;100355.66;1974635;90;27664;-67
2021/06/25 13:43:30;;;;;;;4.70;3.77;;;;;;;24.47;52.77;100350.38;1975690;90;29361;-67
2021/06/25 13:46:39;;;;;;;6.20;4.05;;;;;;;24.53;52.89;100356.57;1975486;90;31747;-67
2021/06/25 13:49:38;;;;;;;4.60;4.20;;;;;;;24.47;52.04;100359.12;1974817;90;33248;-68
2021/06/25 13:52:54;;;;;;;4.35;3.37;;;;;;;24.34;52.32;100368.63;1975767;90;29415;-68
2021/06/25 13:56:04;;;;;;;4.35;3.80;;;;;;;24.26;52.19;100368.09;1954467;90;27565;-67
2021/06/25 13:59:07;;;;;;;3.67;3.37;;;;;;;24.28;52.13;100366.05;1975280;90;28779;-68
2021/06/25 14:02:09;;;;;;;5.22;3.70;;;;;;;24.34;52.08;100356.31;1975488;90;31668;-68
2021/06/25 14:05:12;;;;;;;3.85;3.55;;;;;;;24.31;52.08;100365.38;2038397;85;32940;-68
2021/06/25 14:08:15;;;;;;;5.25;3.85;;;;;;;24.34;52.08;100370.53;2077487;85;29392;-68
2021/06/25 14:11:24;;;;;;;4.90;3.65;;;;;;;24.38;51.94;100371.39;2078204;85;27550;-67
2021/06/25 14:14:34;;;;;;;7.25;4.28;;;;;;;24.40;51.90;100363.88;2077532;85;27688;-66
2021/06/25 14:17:36;;;;;;;5.78;4.28;;;;;;;24.43;51.55;100362.18;2075415;85;31352;-66
2021/06/25 14:20:40;;;;;;;5.55;4.22;;;;;;;24.45;52.00;100367.48;2077802;85;32928;-65
2021/06/25 14:23:45;;;;;;;3.92;3.50;;;;;;;24.38;51.80;100367.81;2077849;85;30262;-67
2021/06/25 14:26:51;;;;;;;4.17;3.40;;;;;;;24.31;52.12;100371.72;2077840;85;27582;-67
2021/06/25 14:29:54;;;;;;;3.92;3.60;;;;;;;24.25;52.08;100365.00;2077766;85;29429;-68
2021/06/25 14:32:57;;;;;;;14.93;13.35;;;;;;;24.11;51.42;100358.28;2077852;85;31773;-68
2021/06/25 14:36:04;;;;;;;5.62;4.58;;;;;;;24.01;52.07;100360.79;2077753;85;34652;-66
2021/06/25 14:39:08;;;;;;;3.42;3.10;;;;;;;23.83;52.17;100365.78;2076653;85;29301;-65
2021/06/25 14:42:12;;;;;;;3.35;3.05;;;;;;;23.66;52.26;100364.30;2127677;82;36657;-68
2021/06/25 14:45:15;;;;;;;6.17;4.00;;;;;;;23.56;52.73;100366.79;2127782;83;29398;-65
2021/06/25 14:48:17;;;;;;;4.65;3.60;;;;;;;23.42;52.67;100366.84;2127756;82;30977;-67
2021/06/25 14:51:19;;;;;;;5.30;3.77;;;;;;;23.29;53.03;100368.12;2127428;83;33653;-65
2021/06/25 14:54:22;;;;;;;5.10;3.85;;;;;;;23.13;53.24;100367.45;2127659;82;29461;-67
2021/06/25 14:57:25;;;;;;;6.87;3.47;;;;;;;23.04;54.08;100366.52;2127753;82;27507;-69
2021/06/25 15:00:29;;;;;;;7.37;4.05;;;;;;;22.94;54.95;100364.87;2127747;83;29325;-69
2021/06/25 15:03:32;;;;;;;6.80;5.08;;;;;;;22.82;55.74;100373.79;2127764;82;31063;-68
2021/06/25 15:06:37;;;;;;;9.55;5.92;;;;;;;22.68;56.91;100377.89;2127865;82;33013;-69
2021/06/25 15:09:40;;;;;;;9.50;6.33;;;;;;;22.50;57.37;100379.23;2118654;83;29937;-68
2021/06/25 15:12:43;;;;;;;8.33;6.05;;;;;;;22.34;58.32;100384.81;2127738;83;27666;-67
2021/06/25 15:15:47;;;;;;;16.60;6.65;;;;;;;22.20;58.98;100376.61;2127648;82;28600;-69
2021/06/25 15:18:49;;;;;;;20.65;7.45;;;;;;;22.05;59.70;100363.98;2127803;83;31774;-82
2021/06/25 15:21:51;;;;;;;8.85;6.85;;;;;;;21.88;60.44;100347.88;2127815;82;33160;-83
2021/06/25 15:24:52;;;;;;;9.33;6.65;;;;;;;21.77;60.92;100346.70;2127457;83;30292;-83
2021/06/25 15:27:54;;;;;;;11.65;7.90;;;;;;;21.62;61.33;100351.75;2127827;83;27662;-82
2021/06/25 15:30:56;;;;;;;10.43;7.20;;;;;;;21.57;62.43;100356.77;2127789;83;28614;-82